Fort Smith, Canada
Current Conditions -  °F | °C
As of 5:00 PM on Friday 28 Nov 2014 (Local Time) from CYSM Reporting Station
Scattered Clouds Scattered Clouds  
Wind Chill: -27°   Ceiling: Unl
Heat Index: -15°   Visibility: 15mi
Dew Point: -20°   Wind: 5mph
Humidity: 77%   Direction: 200°SSW
Pressure: 30.09"   Gusts: NA
Location:  60.02°N, 111.89°W
Report Text: CYSM 290000Z 20004KT 15SM FEW020 SCT100 M26/M29 A3009 RMK SC2AC1 SLP218
Loading
Personal Weather Stations






























Interactive Weather Map New forecast layout! Learn more

10-Day Weather Forecast

Advertisements
Track Severe Weather on mobile